sensor_id;sensor_type;location;lat;lon;timestamp;P1;durP1;ratioP1;P2;durP2;ratioP2
5195;SDS011;2617;51.006;12.436;2023-01-01T00:01:30;20.50;;;12.40;;
5195;SDS011;2617;51.006;12.436;2023-01-01T00:06:33;4.50;;;3.63;;
5195;SDS011;2617;51.006;12.436;2023-01-01T00:11:35;4.80;;;2.93;;
5195;SDS011;2617;51.006;12.436;2023-01-01T00:16:38;4.60;;;3.27;;
5195;SDS011;2617;51.006;12.436;2023-01-01T00:21:40;5.07;;;4.22;;
5195;SDS011;2617;51.006;12.436;2023-01-01T00:26:42;5.10;;;3.47;;
5195;SDS011;2617;51.006;12.436;2023-01-01T00:31:45;5.93;;;3.87;;
5195;SDS011;2617;51.006;12.436;2023-01-01T00:36:47;4.07;;;3.10;;
5195;SDS011;2617;51.006;12.436;2023-01-01T00:41:50;3.70;;;2.70;;
5195;SDS011;2617;51.006;12.436;2023-01-01T00:46:52;5.17;;;2.97;;
5195;SDS011;2617;51.006;12.436;2023-01-01T00:51:54;5.37;;;2.87;;
5195;SDS011;2617;51.006;12.436;2023-01-01T00:56:58;3.03;;;2.77;;
5195;SDS011;2617;51.006;12.436;2023-01-01T01:02:00;3.80;;;2.50;;
5195;SDS011;2617;51.006;12.436;2023-01-01T01:07:02;2.47;;;2.20;;
5195;SDS011;2617;51.006;12.436;2023-01-01T01:12:05;2.17;;;2.07;;
5195;SDS011;2617;51.006;12.436;2023-01-01T01:17:07;2.80;;;2.10;;
5195;SDS011;2617;51.006;12.436;2023-01-01T01:22:10;2.70;;;1.80;;
5195;SDS011;2617;51.006;12.436;2023-01-01T01:27:13;2.07;;;1.87;;
5195;SDS011;2617;51.006;12.436;2023-01-01T01:32:15;2.90;;;2.17;;
5195;SDS011;2617;51.006;12.436;2023-01-01T01:37:18;4.50;;;2.27;;
5195;SDS011;2617;51.006;12.436;2023-01-01T01:42:20;2.20;;;1.90;;
5195;SDS011;2617;51.006;12.436;2023-01-01T01:47:25;2.07;;;1.93;;
5195;SDS011;2617;51.006;12.436;2023-01-01T01:52:28;2.07;;;1.97;;
5195;SDS011;2617;51.006;12.436;2023-01-01T01:57:31;3.47;;;2.20;;
5195;SDS011;2617;51.006;12.436;2023-01-01T02:08:06;2.40;;;2.20;;
5195;SDS011;2617;51.006;12.436;2023-01-01T02:13:08;3.30;;;2.50;;
5195;SDS011;2617;51.006;12.436;2023-01-01T02:18:11;2.83;;;2.20;;
5195;SDS011;2617;51.006;12.436;2023-01-01T02:23:20;2.23;;;2.10;;
5195;SDS011;2617;51.006;12.436;2023-01-01T02:29:02;2.90;;;2.53;;
5195;SDS011;2617;51.006;12.436;2023-01-01T02:34:07;4.00;;;2.87;;
5195;SDS011;2617;51.006;12.436;2023-01-01T02:39:09;2.80;;;2.47;;
5195;SDS011;2617;51.006;12.436;2023-01-01T02:44:12;2.53;;;2.33;;
5195;SDS011;2617;51.006;12.436;2023-01-01T02:49:14;3.90;;;2.40;;
5195;SDS011;2617;51.006;12.436;2023-01-01T02:54:24;4.97;;;3.13;;
5195;SDS011;2617;51.006;12.436;2023-01-01T02:59:32;7.17;;;2.90;;
5195;SDS011;2617;51.006;12.436;2023-01-01T03:04:45;4.47;;;2.62;;
5195;SDS011;2617;51.006;12.436;2023-01-01T03:09:58;3.23;;;2.50;;
5195;SDS011;2617;51.006;12.436;2023-01-01T03:15:01;3.30;;;2.50;;
5195;SDS011;2617;51.006;12.436;2023-01-01T03:20:05;2.67;;;2.37;;
5195;SDS011;2617;51.006;12.436;2023-01-01T03:25:11;4.57;;;2.65;;
5195;SDS011;2617;51.006;12.436;2023-01-01T03:30:13;4.00;;;2.13;;
5195;SDS011;2617;51.006;12.436;2023-01-01T03:35:16;3.10;;;2.45;;
5195;SDS011;2617;51.006;12.436;2023-01-01T03:40:19;3.63;;;2.33;;
5195;SDS011;2617;51.006;12.436;2023-01-01T03:45:25;3.50;;;2.20;;
5195;SDS011;2617;51.006;12.436;2023-01-01T03:50:40;8.30;;;2.70;;
5195;SDS011;2617;51.006;12.436;2023-01-01T03:55:51;9.07;;;2.80;;
5195;SDS011;2617;51.006;12.436;2023-01-01T04:00:55;2.77;;;2.30;;
5195;SDS011;2617;51.006;12.436;2023-01-01T04:06:11;3.50;;;2.80;;
5195;SDS011;2617;51.006;12.436;2023-01-01T04:11:15;2.67;;;2.47;;
5195;SDS011;2617;51.006;12.436;2023-01-01T04:16:24;6.30;;;2.30;;
5195;SDS011;2617;51.006;12.436;2023-01-01T04:21:26;3.97;;;2.60;;
5195;SDS011;2617;51.006;12.436;2023-01-01T04:26:28;4.50;;;2.60;;
5195;SDS011;2617;51.006;12.436;2023-01-01T04:31:31;3.07;;;2.50;;
5195;SDS011;2617;51.006;12.436;2023-01-01T04:36:33;2.80;;;2.40;;
5195;SDS011;2617;51.006;12.436;2023-01-01T04:41:36;3.12;;;2.45;;
5195;SDS011;2617;51.006;12.436;2023-01-01T04:46:39;3.20;;;2.20;;
5195;SDS011;2617;51.006;12.436;2023-01-01T04:51:41;2.23;;;2.00;;
5195;SDS011;2617;51.006;12.436;2023-01-01T04:56:43;2.47;;;2.20;;
5195;SDS011;2617;51.006;12.436;2023-01-01T05:01:46;1.90;;;1.80;;
5195;SDS011;2617;51.006;12.436;2023-01-01T05:06:48;2.60;;;2.40;;
5195;SDS011;2617;51.006;12.436;2023-01-01T05:11:52;3.27;;;2.53;;
5195;SDS011;2617;51.006;12.436;2023-01-01T05:16:53;2.60;;;2.20;;
5195;SDS011;2617;51.006;12.436;2023-01-01T05:21:56;4.93;;;2.33;;
5195;SDS011;2617;51.006;12.436;2023-01-01T05:26:58;2.20;;;2.03;;
5195;SDS011;2617;51.006;12.436;2023-01-01T05:32:01;2.55;;;2.00;;
5195;SDS011;2617;51.006;12.436;2023-01-01T05:37:05;2.23;;;2.07;;
5195;SDS011;2617;51.006;12.436;2023-01-01T05:42:07;2.93;;;2.53;;
5195;SDS011;2617;51.006;12.436;2023-01-01T05:47:10;6.90;;;2.20;;
5195;SDS011;2617;51.006;12.436;2023-01-01T05:52:12;3.57;;;2.23;;
5195;SDS011;2617;51.006;12.436;2023-01-01T05:57:14;6.83;;;2.43;;
5195;SDS011;2617;51.006;12.436;2023-01-01T06:02:17;4.20;;;1.83;;
5195;SDS011;2617;51.006;12.436;2023-01-01T06:07:19;3.50;;;2.60;;
5195;SDS011;2617;51.006;12.436;2023-01-01T06:12:21;2.40;;;2.20;;
5195;SDS011;2617;51.006;12.436;2023-01-01T06:17:25;3.73;;;2.07;;
5195;SDS011;2617;51.006;12.436;2023-01-01T06:22:27;5.97;;;2.47;;
5195;SDS011;2617;51.006;12.436;2023-01-01T06:27:30;3.40;;;2.93;;
5195;SDS011;2617;51.006;12.436;2023-01-01T06:32:33;2.50;;;2.30;;
5195;SDS011;2617;51.006;12.436;2023-01-01T06:37:35;6.90;;;2.92;;
5195;SDS011;2617;51.006;12.436;2023-01-01T06:42:38;5.57;;;3.50;;
5195;SDS011;2617;51.006;12.436;2023-01-01T06:47:40;4.60;;;3.23;;
5195;SDS011;2617;51.006;12.436;2023-01-01T06:52:42;4.37;;;3.72;;
5195;SDS011;2617;51.006;12.436;2023-01-01T06:57:46;3.40;;;2.70;;
5195;SDS011;2617;51.006;12.436;2023-01-01T07:02:49;5.77;;;3.20;;
5195;SDS011;2617;51.006;12.436;2023-01-01T07:07:51;4.23;;;3.57;;
5195;SDS011;2617;51.006;12.436;2023-01-01T07:12:54;4.77;;;3.37;;
5195;SDS011;2617;51.006;12.436;2023-01-01T07:17:56;4.70;;;3.10;;
5195;SDS011;2617;51.006;12.436;2023-01-01T07:22:58;8.53;;;3.37;;
5195;SDS011;2617;51.006;12.436;2023-01-01T07:28:02;5.25;;;3.33;;
5195;SDS011;2617;51.006;12.436;2023-01-01T07:33:04;6.63;;;4.40;;
5195;SDS011;2617;51.006;12.436;2023-01-01T07:38:07;5.90;;;3.70;;
5195;SDS011;2617;51.006;12.436;2023-01-01T07:43:09;7.50;;;4.23;;
5195;SDS011;2617;51.006;12.436;2023-01-01T07:48:12;6.50;;;4.17;;
5195;SDS011;2617;51.006;12.436;2023-01-01T07:53:14;8.13;;;3.80;;
5195;SDS011;2617;51.006;12.436;2023-01-01T07:58:17;4.77;;;3.53;;
5195;SDS011;2617;51.006;12.436;2023-01-01T08:03:19;4.17;;;3.00;;
5195;SDS011;2617;51.006;12.436;2023-01-01T08:08:21;5.67;;;4.13;;
5195;SDS011;2617;51.006;12.436;2023-01-01T08:13:24;4.70;;;3.20;;
5195;SDS011;2617;51.006;12.436;2023-01-01T08:18:26;5.03;;;3.10;;
5195;SDS011;2617;51.006;12.436;2023-01-01T08:23:28;4.10;;;3.60;;
5195;SDS011;2617;51.006;12.436;2023-01-01T08:28:31;6.40;;;3.80;;
5195;SDS011;2617;51.006;12.436;2023-01-01T08:33:34;6.65;;;3.20;;
5195;SDS011;2617;51.006;12.436;2023-01-01T08:38:36;5.37;;;2.97;;
5195;SDS011;2617;51.006;12.436;2023-01-01T08:43:39;7.57;;;3.58;;
5195;SDS011;2617;51.006;12.436;2023-01-01T08:48:41;4.63;;;3.00;;
5195;SDS011;2617;51.006;12.436;2023-01-01T08:53:44;5.57;;;3.00;;
5195;SDS011;2617;51.006;12.436;2023-01-01T08:58:46;4.35;;;3.10;;
5195;SDS011;2617;51.006;12.436;2023-01-01T09:03:49;4.53;;;2.80;;
5195;SDS011;2617;51.006;12.436;2023-01-01T09:08:51;3.47;;;2.83;;
5195;SDS011;2617;51.006;12.436;2023-01-01T09:13:53;3.27;;;2.73;;
5195;SDS011;2617;51.006;12.436;2023-01-01T09:18:56;4.50;;;3.30;;
5195;SDS011;2617;51.006;12.436;2023-01-01T09:23:59;5.40;;;2.67;;
5195;SDS011;2617;51.006;12.436;2023-01-01T09:29:01;3.67;;;2.70;;
5195;SDS011;2617;51.006;12.436;2023-01-01T09:34:05;5.97;;;2.93;;
5195;SDS011;2617;51.006;12.436;2023-01-01T09:39:08;4.83;;;2.50;;
5195;SDS011;2617;51.006;12.436;2023-01-01T09:44:16;4.50;;;2.37;;
5195;SDS011;2617;51.006;12.436;2023-01-01T09:49:34;2.60;;;2.27;;
5195;SDS011;2617;51.006;12.436;2023-01-01T09:54:37;3.77;;;2.63;;
5195;SDS011;2617;51.006;12.436;2023-01-01T09:59:42;3.37;;;2.27;;
5195;SDS011;2617;51.006;12.436;2023-01-01T10:04:54;3.25;;;2.10;;
5195;SDS011;2617;51.006;12.436;2023-01-01T10:10:18;2.22;;;1.90;;
5195;SDS011;2617;51.006;12.436;2023-01-01T10:15:36;5.23;;;2.53;;
5195;SDS011;2617;51.006;12.436;2023-01-01T10:20:40;3.53;;;2.33;;
5195;SDS011;2617;51.006;12.436;2023-01-01T10:25:42;3.40;;;2.40;;
5195;SDS011;2617;51.006;12.436;2023-01-01T10:30:44;2.90;;;2.17;;
5195;SDS011;2617;51.006;12.436;2023-01-01T10:35:48;8.23;;;2.60;;
5195;SDS011;2617;51.006;12.436;2023-01-01T10:40:52;3.63;;;1.97;;
5195;SDS011;2617;51.006;12.436;2023-01-01T10:45:54;4.80;;;2.50;;
5195;SDS011;2617;51.006;12.436;2023-01-01T10:50:57;3.80;;;1.80;;
5195;SDS011;2617;51.006;12.436;2023-01-01T10:56:10;6.10;;;2.37;;
5195;SDS011;2617;51.006;12.436;2023-01-01T11:01:21;4.17;;;2.13;;
5195;SDS011;2617;51.006;12.436;2023-01-01T11:06:34;6.63;;;2.40;;
5195;SDS011;2617;51.006;12.436;2023-01-01T11:11:40;4.53;;;2.40;;
5195;SDS011;2617;51.006;12.436;2023-01-01T11:16:43;2.62;;;1.90;;
5195;SDS011;2617;51.006;12.436;2023-01-01T11:21:46;2.00;;;1.80;;
5195;SDS011;2617;51.006;12.436;2023-01-01T11:26:49;2.70;;;2.37;;
5195;SDS011;2617;51.006;12.436;2023-01-01T11:31:51;2.97;;;1.97;;
5195;SDS011;2617;51.006;12.436;2023-01-01T11:42:24;4.95;;;2.00;;
5195;SDS011;2617;51.006;12.436;2023-01-01T11:52:47;3.30;;;1.95;;
5195;SDS011;2617;51.006;12.436;2023-01-01T11:57:55;6.63;;;3.10;;
5195;SDS011;2617;51.006;12.436;2023-01-01T12:08:39;4.85;;;2.40;;
5195;SDS011;2617;51.006;12.436;2023-01-01T12:13:48;3.47;;;1.90;;
5195;SDS011;2617;51.006;12.436;2023-01-01T12:24:25;6.40;;;2.33;;
5195;SDS011;2617;51.006;12.436;2023-01-01T12:29:30;3.60;;;2.03;;
5195;SDS011;2617;51.006;12.436;2023-01-01T12:34:44;3.80;;;2.40;;
5195;SDS011;2617;51.006;12.436;2023-01-01T12:45:29;5.23;;;2.10;;
5195;SDS011;2617;51.006;12.436;2023-01-01T12:50:49;6.97;;;1.97;;
5195;SDS011;2617;51.006;12.436;2023-01-01T12:56:12;4.28;;;2.20;;
5195;SDS011;2617;51.006;12.436;2023-01-01T13:01:24;5.70;;;2.00;;
5195;SDS011;2617;51.006;12.436;2023-01-01T13:11:44;6.50;;;2.03;;
5195;SDS011;2617;51.006;12.436;2023-01-01T13:16:49;3.05;;;2.20;;
5195;SDS011;2617;51.006;12.436;2023-01-01T13:21:52;2.33;;;1.60;;
5195;SDS011;2617;51.006;12.436;2023-01-01T13:26:55;4.50;;;1.50;;
5195;SDS011;2617;51.006;12.436;2023-01-01T13:31:58;4.37;;;1.77;;
5195;SDS011;2617;51.006;12.436;2023-01-01T13:53:16;5.77;;;1.80;;
5195;SDS011;2617;51.006;12.436;2023-01-01T14:04:49;4.90;;;2.10;;
5195;SDS011;2617;51.006;12.436;2023-01-01T14:10:06;5.90;;;2.50;;
5195;SDS011;2617;51.006;12.436;2023-01-01T14:14:55;3.40;;;1.80;;
5195;SDS011;2617;51.006;12.436;2023-01-01T14:19:58;3.83;;;2.25;;
5195;SDS011;2617;51.006;12.436;2023-01-01T14:25:01;12.60;;;2.43;;
5195;SDS011;2617;51.006;12.436;2023-01-01T14:30:04;5.73;;;2.63;;
5195;SDS011;2617;51.006;12.436;2023-01-01T14:35:13;2.70;;;2.50;;
5195;SDS011;2617;51.006;12.436;2023-01-01T14:40:18;5.30;;;2.50;;
5195;SDS011;2617;51.006;12.436;2023-01-01T14:45:21;7.17;;;3.50;;
5195;SDS011;2617;51.006;12.436;2023-01-01T14:50:29;3.20;;;2.30;;
5195;SDS011;2617;51.006;12.436;2023-01-01T14:55:32;7.43;;;2.80;;
5195;SDS011;2617;51.006;12.436;2023-01-01T15:00:35;6.17;;;2.70;;
5195;SDS011;2617;51.006;12.436;2023-01-01T15:05:38;5.07;;;2.73;;
5195;SDS011;2617;51.006;12.436;2023-01-01T15:10:40;5.90;;;2.17;;
5195;SDS011;2617;51.006;12.436;2023-01-01T15:15:44;5.13;;;2.60;;
5195;SDS011;2617;51.006;12.436;2023-01-01T15:20:51;2.07;;;1.87;;
5195;SDS011;2617;51.006;12.436;2023-01-01T15:25:49;7.03;;;3.73;;
5195;SDS011;2617;51.006;12.436;2023-01-01T15:30:53;20.60;;;6.40;;
5195;SDS011;2617;51.006;12.436;2023-01-01T15:35:56;8.57;;;5.60;;
5195;SDS011;2617;51.006;12.436;2023-01-01T15:40:59;9.70;;;5.73;;
5195;SDS011;2617;51.006;12.436;2023-01-01T15:51:13;10.83;;;6.60;;
5195;SDS011;2617;51.006;12.436;2023-01-01T15:56:15;7.47;;;5.17;;
5195;SDS011;2617;51.006;12.436;2023-01-01T16:01:20;5.63;;;3.17;;
5195;SDS011;2617;51.006;12.436;2023-01-01T16:06:21;9.30;;;4.05;;
5195;SDS011;2617;51.006;12.436;2023-01-01T16:11:24;3.87;;;2.60;;
5195;SDS011;2617;51.006;12.436;2023-01-01T16:16:27;5.37;;;2.45;;
5195;SDS011;2617;51.006;12.436;2023-01-01T16:21:29;9.40;;;2.57;;
5195;SDS011;2617;51.006;12.436;2023-01-01T16:26:32;6.93;;;2.40;;
5195;SDS011;2617;51.006;12.436;2023-01-01T16:31:34;5.40;;;3.30;;
5195;SDS011;2617;51.006;12.436;2023-01-01T16:36:36;6.63;;;3.07;;
5195;SDS011;2617;51.006;12.436;2023-01-01T16:41:39;5.07;;;3.57;;
5195;SDS011;2617;51.006;12.436;2023-01-01T16:46:41;3.80;;;2.87;;
5195;SDS011;2617;51.006;12.436;2023-01-01T16:51:44;2.63;;;2.37;;
5195;SDS011;2617;51.006;12.436;2023-01-01T16:56:47;4.20;;;2.23;;
5195;SDS011;2617;51.006;12.436;2023-01-01T17:01:50;8.20;;;3.60;;
5195;SDS011;2617;51.006;12.436;2023-01-01T17:06:53;4.50;;;2.40;;
5195;SDS011;2617;51.006;12.436;2023-01-01T17:11:55;4.00;;;2.10;;
5195;SDS011;2617;51.006;12.436;2023-01-01T17:16:57;2.87;;;2.00;;
5195;SDS011;2617;51.006;12.436;2023-01-01T17:22:00;9.23;;;2.10;;
5195;SDS011;2617;51.006;12.436;2023-01-01T17:27:02;3.47;;;2.23;;
5195;SDS011;2617;51.006;12.436;2023-01-01T17:32:04;2.77;;;2.00;;
5195;SDS011;2617;51.006;12.436;2023-01-01T17:37:07;2.33;;;2.07;;
5195;SDS011;2617;51.006;12.436;2023-01-01T17:42:09;5.80;;;2.70;;
5195;SDS011;2617;51.006;12.436;2023-01-01T17:47:12;7.82;;;4.00;;
5195;SDS011;2617;51.006;12.436;2023-01-01T17:52:14;3.80;;;2.13;;
5195;SDS011;2617;51.006;12.436;2023-01-01T17:57:17;6.28;;;2.80;;
5195;SDS011;2617;51.006;12.436;2023-01-01T18:02:19;7.40;;;4.20;;
5195;SDS011;2617;51.006;12.436;2023-01-01T18:07:22;7.60;;;3.30;;
5195;SDS011;2617;51.006;12.436;2023-01-01T18:12:24;6.10;;;2.77;;
5195;SDS011;2617;51.006;12.436;2023-01-01T18:17:26;3.63;;;2.50;;
5195;SDS011;2617;51.006;12.436;2023-01-01T18:22:29;6.43;;;2.20;;
5195;SDS011;2617;51.006;12.436;2023-01-01T18:27:31;4.15;;;2.35;;
5195;SDS011;2617;51.006;12.436;2023-01-01T18:32:34;4.37;;;2.70;;
5195;SDS011;2617;51.006;12.436;2023-01-01T18:37:36;5.43;;;2.20;;
5195;SDS011;2617;51.006;12.436;2023-01-01T18:42:52;5.53;;;1.83;;
5195;SDS011;2617;51.006;12.436;2023-01-01T18:47:58;5.90;;;2.17;;
5195;SDS011;2617;51.006;12.436;2023-01-01T18:53:05;7.63;;;2.63;;
5195;SDS011;2617;51.006;12.436;2023-01-01T18:58:17;3.30;;;2.30;;
5195;SDS011;2617;51.006;12.436;2023-01-01T19:03:20;3.40;;;2.47;;
5195;SDS011;2617;51.006;12.436;2023-01-01T19:08:24;7.10;;;3.00;;
5195;SDS011;2617;51.006;12.436;2023-01-01T19:13:28;5.23;;;3.73;;
5195;SDS011;2617;51.006;12.436;2023-01-01T19:18:31;3.55;;;2.42;;
5195;SDS011;2617;51.006;12.436;2023-01-01T19:23:32;3.08;;;2.22;;
5195;SDS011;2617;51.006;12.436;2023-01-01T19:28:35;4.77;;;2.60;;
5195;SDS011;2617;51.006;12.436;2023-01-01T19:33:37;4.53;;;2.70;;
5195;SDS011;2617;51.006;12.436;2023-01-01T19:38:39;7.80;;;2.20;;
5195;SDS011;2617;51.006;12.436;2023-01-01T19:43:42;8.27;;;2.80;;
5195;SDS011;2617;51.006;12.436;2023-01-01T19:48:45;3.33;;;2.47;;
5195;SDS011;2617;51.006;12.436;2023-01-01T19:53:48;4.80;;;2.20;;
5195;SDS011;2617;51.006;12.436;2023-01-01T19:58:50;3.35;;;2.67;;
5195;SDS011;2617;51.006;12.436;2023-01-01T20:03:53;4.57;;;2.87;;
5195;SDS011;2617;51.006;12.436;2023-01-01T20:08:55;3.27;;;2.57;;
5195;SDS011;2617;51.006;12.436;2023-01-01T20:13:58;6.47;;;2.80;;
5195;SDS011;2617;51.006;12.436;2023-01-01T20:19:00;6.50;;;2.50;;
5195;SDS011;2617;51.006;12.436;2023-01-01T20:24:02;6.23;;;3.37;;
5195;SDS011;2617;51.006;12.436;2023-01-01T20:29:06;8.00;;;2.73;;
5195;SDS011;2617;51.006;12.436;2023-01-01T20:34:14;9.52;;;2.80;;
5195;SDS011;2617;51.006;12.436;2023-01-01T20:39:18;4.93;;;2.87;;
5195;SDS011;2617;51.006;12.436;2023-01-01T20:44:20;4.00;;;2.33;;
5195;SDS011;2617;51.006;12.436;2023-01-01T20:49:23;3.80;;;2.20;;
5195;SDS011;2617;51.006;12.436;2023-01-01T20:54:26;4.90;;;2.40;;
5195;SDS011;2617;51.006;12.436;2023-01-01T20:59:28;5.03;;;2.60;;
5195;SDS011;2617;51.006;12.436;2023-01-01T21:04:30;4.53;;;2.13;;
5195;SDS011;2617;51.006;12.436;2023-01-01T21:09:33;4.67;;;2.20;;
5195;SDS011;2617;51.006;12.436;2023-01-01T21:14:36;8.23;;;3.20;;
5195;SDS011;2617;51.006;12.436;2023-01-01T21:19:39;4.10;;;2.50;;
5195;SDS011;2617;51.006;12.436;2023-01-01T21:24:42;7.20;;;3.27;;
5195;SDS011;2617;51.006;12.436;2023-01-01T21:29:46;5.12;;;2.97;;
5195;SDS011;2617;51.006;12.436;2023-01-01T21:34:48;3.53;;;2.93;;
5195;SDS011;2617;51.006;12.436;2023-01-01T21:39:51;8.70;;;3.10;;
5195;SDS011;2617;51.006;12.436;2023-01-01T21:44:54;3.67;;;2.65;;
5195;SDS011;2617;51.006;12.436;2023-01-01T21:49:57;3.93;;;2.73;;
5195;SDS011;2617;51.006;12.436;2023-01-01T21:54:59;6.03;;;3.57;;
5195;SDS011;2617;51.006;12.436;2023-01-01T22:00:04;6.03;;;3.22;;
5195;SDS011;2617;51.006;12.436;2023-01-01T22:05:16;4.70;;;3.37;;
5195;SDS011;2617;51.006;12.436;2023-01-01T22:10:25;9.20;;;3.20;;
5195;SDS011;2617;51.006;12.436;2023-01-01T22:15:29;5.90;;;3.20;;
5195;SDS011;2617;51.006;12.436;2023-01-01T22:20:31;6.47;;;3.60;;
5195;SDS011;2617;51.006;12.436;2023-01-01T22:25:33;3.70;;;3.33;;
5195;SDS011;2617;51.006;12.436;2023-01-01T22:30:36;5.17;;;3.60;;
5195;SDS011;2617;51.006;12.436;2023-01-01T22:35:39;5.27;;;3.27;;
5195;SDS011;2617;51.006;12.436;2023-01-01T22:40:42;6.83;;;4.00;;
5195;SDS011;2617;51.006;12.436;2023-01-01T22:45:45;9.10;;;4.17;;
5195;SDS011;2617;51.006;12.436;2023-01-01T22:50:47;15.20;;;4.23;;
5195;SDS011;2617;51.006;12.436;2023-01-01T22:55:50;10.20;;;3.93;;
5195;SDS011;2617;51.006;12.436;2023-01-01T23:00:52;7.00;;;4.10;;
5195;SDS011;2617;51.006;12.436;2023-01-01T23:05:54;5.77;;;3.83;;
5195;SDS011;2617;51.006;12.436;2023-01-01T23:10:57;6.70;;;5.07;;
5195;SDS011;2617;51.006;12.436;2023-01-01T23:15:59;6.70;;;4.00;;
5195;SDS011;2617;51.006;12.436;2023-01-01T23:21:04;6.93;;;4.30;;
5195;SDS011;2617;51.006;12.436;2023-01-01T23:26:08;11.53;;;4.97;;
5195;SDS011;2617;51.006;12.436;2023-01-01T23:31:10;6.57;;;3.97;;
5195;SDS011;2617;51.006;12.436;2023-01-01T23:36:13;8.30;;;3.63;;
5195;SDS011;2617;51.006;12.436;2023-01-01T23:41:16;5.90;;;4.20;;
5195;SDS011;2617;51.006;12.436;2023-01-01T23:46:19;3.40;;;3.03;;
5195;SDS011;2617;51.006;12.436;2023-01-01T23:51:22;5.27;;;3.57;;
5195;SDS011;2617;51.006;12.436;2023-01-01T23:56:24;5.40;;;3.47;;
